Terminal Aerodrome Forecast
Issued by NWS Melbourne, FL

Home | Current Version | Previous Version | Text Only | Print | Product List | Glossary On
Versions: 1 2 3 4 5 6 7 8 9 10 11 12 13
887
FTUS42 KMLB 122326
TAFMLB
TAF
KMLB 122326Z 1300/1324 23007KT P6SM SKC
     FM130400 26008KT P6SM FEW030 SCT250
     FM131000 29009KT P6SM FEW250
     FM131300 32011KT P6SM SKC=

USA.gov is the U.S. government's official web portal to all federal, state and local government web resources and services.